Time;durP1;ratioP1;P1;durP2;ratioP2;P2;SDS_P1;SDS_P2;PMS_P1;PMS_P2;Temp;Humidity;BMP_temperature;BMP_pressure;BME280_temperature;BME280_humidity;BME280_pressure;Samples;Min_cycle;Max_cycle;Signal;HPM_P1;HPM_P2
2021/11/03 00:01:42;;;;;;;4.13;2.58;;;5.80;99.90;;;;;;5050545;28;20033;-71
2021/11/03 00:04:08;;;;;;;5.57;3.67;;;5.70;99.90;;;;;;5048264;28;20056;-71
2021/11/03 00:06:37;;;;;;;4.68;3.30;;;5.80;99.90;;;;;;5050273;28;20424;-71
2021/11/03 00:09:04;;;;;;;5.15;3.50;;;5.80;99.90;;;;;;5051604;28;20025;-71
2021/11/03 00:11:31;;;;;;;5.53;3.78;;;5.90;99.90;;;;;;5052032;28;20058;-71
2021/11/03 00:13:57;;;;;;;7.30;4.68;;;5.90;99.90;;;;;;5050792;28;20415;-72
2021/11/03 00:16:23;;;;;;;6.68;4.13;;;5.80;99.90;;;;;;5050309;28;20078;-71
2021/11/03 00:18:49;;;;;;;6.07;4.25;;;5.80;99.90;;;;;;5049905;28;20062;-71
2021/11/03 00:21:15;;;;;;;5.80;4.22;;;5.80;99.90;;;;;;5050291;28;20127;-71
2021/11/03 00:23:41;;;;;;;5.75;4.28;;;5.70;99.90;;;;;;5049737;28;20025;-71
2021/11/03 00:26:07;;;;;;;6.93;4.50;;;5.70;99.90;;;;;;5050524;28;20028;-71
2021/11/03 00:28:32;;;;;;;6.22;4.20;;;5.60;99.90;;;;;;5052394;28;20382;-71
2021/11/03 00:30:59;;;;;;;8.32;4.20;;;5.60;99.90;;;;;;5053887;28;20396;-71
2021/11/03 00:33:28;;;;;;;5.07;3.83;;;5.60;99.90;;;;;;5053744;28;20029;-71
2021/11/03 00:35:55;;;;;;;8.13;3.75;;;5.70;99.90;;;;;;5054102;28;20024;-71
2021/11/03 00:38:22;;;;;;;5.40;3.92;;;5.70;99.90;;;;;;5053975;28;20025;-71
2021/11/03 00:40:49;;;;;;;7.25;4.35;;;5.80;99.90;;;;;;5050690;28;20033;-71
2021/11/03 00:43:15;;;;;;;7.70;4.57;;;5.90;99.90;;;;;;5054042;28;20458;-71
2021/11/03 00:45:41;;;;;;;5.50;4.45;;;6.00;99.90;;;;;;5052627;28;20049;-71
2021/11/03 00:48:07;;;;;;;6.22;4.43;;;6.00;99.90;;;;;;5051225;28;20036;-71
2021/11/03 00:50:33;;;;;;;5.35;4.03;;;5.90;99.90;;;;;;5053027;28;20025;-71
2021/11/03 00:52:59;;;;;;;7.25;3.53;;;5.90;99.90;;;;;;5054235;28;20143;-71
2021/11/03 00:55:25;;;;;;;4.50;3.10;;;5.90;99.90;;;;;;5054945;28;20056;-70
2021/11/03 00:57:50;;;;;;;6.50;3.97;;;5.80;99.90;;;;;;5054388;28;20078;-71
2021/11/03 01:00:18;;;;;;;5.68;3.63;;;5.90;99.90;;;;;;5054860;28;20064;-71
2021/11/03 01:02:45;;;;;;;4.82;3.50;;;5.90;99.90;;;;;;5053877;28;20029;-71
2021/11/03 01:05:13;;;;;;;6.22;3.40;;;5.90;99.90;;;;;;5054875;28;20048;-71
2021/11/03 01:07:39;;;;;;;5.10;3.10;;;6.00;99.90;;;;;;5054114;28;20032;-71
2021/11/03 01:10:07;;;;;;;5.32;3.13;;;6.00;99.90;;;;;;5054729;28;20028;-71
2021/11/03 01:12:33;;;;;;;5.30;3.20;;;5.90;99.90;;;;;;5054068;28;20536;-70
2021/11/03 01:14:59;;;;;;;4.65;2.92;;;5.80;99.90;;;;;;5054342;28;20163;-71
2021/11/03 01:17:24;;;;;;;4.13;2.90;;;5.80;99.90;;;;;;5054193;28;20107;-71
2021/11/03 01:19:50;;;;;;;5.18;2.97;;;5.70;99.90;;;;;;5053807;28;20534;-71
2021/11/03 01:22:16;;;;;;;4.55;3.58;;;5.70;99.90;;;;;;5054539;28;20429;-71
2021/11/03 01:24:42;;;;;;;5.05;2.80;;;5.70;99.90;;;;;;5053620;28;20478;-71
2021/11/03 01:27:07;;;;;;;5.88;3.40;;;5.70;99.90;;;;;;5054281;28;20040;-71
2021/11/03 01:29:33;;;;;;;5.78;2.28;;;5.80;99.90;;;;;;5053708;28;20079;-70
2021/11/03 01:31:59;;;;;;;4.55;2.53;;;5.80;99.90;;;;;;5054086;28;20025;-71
2021/11/03 01:34:24;;;;;;;6.05;2.67;;;5.80;99.90;;;;;;5054581;28;20036;-71
2021/11/03 01:36:50;;;;;;;3.67;2.35;;;5.70;99.90;;;;;;5053678;28;20032;-71
2021/11/03 01:39:16;;;;;;;5.63;2.50;;;5.70;99.90;;;;;;5054258;28;20355;-72
2021/11/03 01:41:41;;;;;;;2.83;2.13;;;5.60;99.90;;;;;;5053438;28;20033;-71
2021/11/03 01:44:11;;;;;;;4.00;2.88;;;5.60;99.90;;;;;;5054013;28;20045;-71
2021/11/03 01:46:40;;;;;;;7.40;3.33;;;5.50;99.90;;;;;;5052063;28;20429;-71
2021/11/03 01:49:11;;;;;;;5.25;3.50;;;5.50;99.90;;;;;;5054006;28;20033;-71
2021/11/03 01:51:42;;;;;;;3.65;2.63;;;5.40;99.90;;;;;;5052911;28;20378;-71
2021/11/03 01:54:12;;;;;;;4.28;2.35;;;5.40;99.90;;;;;;5054126;28;20529;-71
2021/11/03 01:56:39;;;;;;;;;;;5.40;99.90;;;;;;5053840;28;20064;-71
2021/11/03 01:59:16;;;;;;;5.35;3.00;;;5.40;99.90;;;;;;5053901;28;19912;-71
2021/11/03 02:01:42;;;;;;;4.70;2.90;;;5.40;99.90;;;;;;5053006;28;20037;-71
2021/11/03 02:04:07;;;;;;;4.25;2.72;;;5.40;99.90;;;;;;5053423;28;20535;-72
2021/11/03 02:06:33;;;;;;;8.18;3.55;;;5.40;99.90;;;;;;5051958;28;20025;-70
2021/11/03 02:08:59;;;;;;;3.60;2.45;;;5.40;99.90;;;;;;5053567;28;20056;-71
2021/11/03 02:11:27;;;;;;;5.65;2.90;;;5.40;99.90;;;;;;5053699;28;20122;-71
2021/11/03 02:13:55;;;;;;;6.10;2.90;;;5.40;99.90;;;;;;5053031;28;20033;-71
2021/11/03 02:16:22;;;;;;;3.50;2.83;;;5.50;99.90;;;;;;5053575;28;20036;-71
2021/11/03 02:18:48;;;;;;;4.75;3.10;;;5.50;99.90;;;;;;5052633;28;20167;-71
2021/11/03 02:21:20;;;;;;;7.15;3.10;;;5.50;99.90;;;;;;5053284;28;20064;-72
2021/11/03 02:23:49;;;;;;;6.00;3.08;;;5.40;99.90;;;;;;5052675;28;20029;-71
2021/11/03 02:26:20;;;;;;;3.67;2.63;;;5.40;99.90;;;;;;5053624;28;20033;-71
2021/11/03 02:28:47;;;;;;;4.15;3.00;;;5.40;99.90;;;;;;5052634;28;20032;-71
2021/11/03 02:31:33;;;;;;;4.28;2.95;;;5.40;99.90;;;;;;5052919;28;20032;-70
2021/11/03 02:34:01;;;;;;;5.57;3.10;;;5.30;99.90;;;;;;5053103;28;20036;-71
2021/11/03 02:36:27;;;;;;;5.82;3.13;;;5.30;99.90;;;;;;5053198;28;20048;-71
2021/11/03 02:38:52;;;;;;;4.50;2.83;;;5.30;99.90;;;;;;5052394;28;20029;-70
2021/11/03 02:41:26;;;;;;;3.97;3.60;;;5.30;99.90;;;;;;5052887;28;20045;-70
2021/11/03 02:44:10;;;;;;;8.68;3.15;;;5.30;99.90;;;;;;5052317;28;20394;-71
2021/11/03 02:46:36;;;;;;;4.15;2.97;;;5.30;99.90;;;;;;5052458;28;20032;-70
2021/11/03 02:49:04;;;;;;;6.50;3.10;;;5.40;99.90;;;;;;5052428;28;20025;-70
2021/11/03 02:51:34;;;;;;;5.32;2.70;;;5.40;99.90;;;;;;5052433;28;20112;-71
2021/11/03 02:54:04;;;;;;;4.82;2.92;;;5.40;99.90;;;;;;5052709;28;20075;-71
2021/11/03 02:56:35;;;;;;;;;;;5.40;99.90;;;;;;5053251;28;20473;-71
2021/11/03 02:59:03;;;;;;;3.28;2.78;;;5.40;99.90;;;;;;5052566;28;20370;-71
2021/11/03 03:01:36;;;;;;;6.28;2.90;;;5.40;99.90;;;;;;5052451;28;20036;-71
2021/11/03 03:04:07;;;;;;;4.93;3.03;;;5.50;99.90;;;;;;5052127;28;20024;-71
2021/11/03 03:06:33;;;;;;;5.55;3.22;;;5.40;99.90;;;;;;5052568;28;20025;-70
2021/11/03 03:08:59;;;;;;;4.65;2.92;;;5.40;99.90;;;;;;5052453;28;20040;-71
2021/11/03 03:11:28;;;;;;;5.05;2.95;;;5.50;99.90;;;;;;5052580;28;20588;-70
2021/11/03 03:13:53;;;;;;;3.20;2.40;;;5.50;99.90;;;;;;5051524;28;20375;-70
2021/11/03 03:16:21;;;;;;;6.70;2.88;;;5.50;99.90;;;;;;5052447;28;20025;-70
2021/11/03 03:18:47;;;;;;;5.43;3.05;;;5.50;99.90;;;;;;5050298;28;20029;-70
2021/11/03 03:21:15;;;;;;;5.50;3.35;;;5.50;99.90;;;;;;5052348;28;20122;-70
2021/11/03 03:23:42;;;;;;;4.68;2.97;;;5.60;99.90;;;;;;5051288;28;20025;-71
2021/11/03 03:26:10;;;;;;;3.22;2.92;;;5.60;99.90;;;;;;5052319;28;20031;-70
2021/11/03 03:28:36;;;;;;;5.43;2.97;;;5.50;99.90;;;;;;5051621;28;20075;-70
2021/11/03 03:31:02;;;;;;;5.07;3.63;;;5.50;99.90;;;;;;5052224;28;20029;-71
2021/11/03 03:33:28;;;;;;;5.03;3.25;;;5.50;99.90;;;;;;5052203;28;20031;-72
2021/11/03 03:35:54;;;;;;;6.15;3.42;;;5.60;99.90;;;;;;5051577;28;20112;-71
2021/11/03 03:38:19;;;;;;;6.53;3.45;;;5.50;99.90;;;;;;5052123;28;20029;-72
2021/11/03 03:40:45;;;;;;;4.35;3.40;;;5.60;99.90;;;;;;5051496;28;20120;-71
2021/11/03 03:43:11;;;;;;;4.60;3.53;;;5.60;99.90;;;;;;5051850;28;20032;-71
2021/11/03 03:45:37;;;;;;;6.70;4.10;;;5.60;99.90;;;;;;5051677;28;20064;-71
2021/11/03 03:48:04;;;;;;;5.45;3.60;;;5.60;99.90;;;;;;5051834;28;20025;-71
2021/11/03 03:50:30;;;;;;;5.95;3.83;;;5.60;99.90;;;;;;5051967;28;20033;-71
2021/11/03 03:52:55;;;;;;;5.18;3.78;;;5.60;99.90;;;;;;5051488;28;20482;-71
2021/11/03 03:55:21;;;;;;;7.05;3.60;;;5.60;99.90;;;;;;5051948;28;20064;-70
2021/11/03 03:57:47;;;;;;;5.35;4.03;;;5.50;99.90;;;;;;5051233;28;20029;-70
2021/11/03 04:00:16;;;;;;;5.70;3.60;;;5.60;99.90;;;;;;5051856;28;20029;-70
2021/11/03 04:02:43;;;;;;;7.35;4.47;;;5.60;99.90;;;;;;5053004;28;20412;-70
2021/11/03 04:05:09;;;;;;;6.13;4.35;;;5.60;99.90;;;;;;5055788;28;20465;-70
2021/11/03 04:07:35;;;;;;;6.95;4.03;;;5.50;99.90;;;;;;5056062;28;20107;-71
2021/11/03 04:10:01;;;;;;;8.82;4.80;;;5.50;99.90;;;;;;5056204;28;20040;-70
2021/11/03 04:12:27;;;;;;;5.75;3.70;;;5.50;99.90;;;;;;5055526;28;20025;-70
2021/11/03 04:14:52;;;;;;;5.78;4.03;;;5.60;99.90;;;;;;5054781;28;20029;-70
2021/11/03 04:17:18;;;;;;;5.90;4.07;;;5.50;99.90;;;;;;5055762;28;20036;-70
2021/11/03 04:19:43;;;;;;;7.85;4.30;;;5.50;99.90;;;;;;5054901;28;20036;-70
2021/11/03 04:22:09;;;;;;;7.97;4.10;;;5.50;99.90;;;;;;5055419;28;20025;-70
2021/11/03 04:24:35;;;;;;;5.35;3.20;;;5.50;99.90;;;;;;5055459;28;20021;-69
2021/11/03 04:27:01;;;;;;;6.63;3.55;;;5.50;99.90;;;;;;5055535;28;20057;-70
2021/11/03 04:29:27;;;;;;;5.07;3.85;;;5.40;99.90;;;;;;5055395;28;20057;-70
2021/11/03 04:31:53;;;;;;;8.48;4.18;;;5.40;99.90;;;;;;5055010;28;20078;-71
2021/11/03 04:34:19;;;;;;;10.77;4.53;;;5.40;99.90;;;;;;5055696;28;20025;-71
2021/11/03 04:36:45;;;;;;;6.10;4.38;;;5.40;99.90;;;;;;5054726;28;20454;-71
2021/11/03 04:39:11;;;;;;;8.95;4.40;;;5.40;99.90;;;;;;5055183;28;20029;-71
2021/11/03 04:41:38;;;;;;;7.15;4.75;;;5.40;99.90;;;;;;5054679;28;20090;-69
2021/11/03 04:44:05;;;;;;;8.40;4.28;;;5.40;99.90;;;;;;5054891;28;20555;-70
2021/11/03 04:46:31;;;;;;;8.82;4.95;;;5.40;99.90;;;;;;5055301;28;20378;-71
2021/11/03 04:48:57;;;;;;;10.30;6.95;;;5.40;99.90;;;;;;5054381;28;20398;-71
2021/11/03 04:51:23;;;;;;;10.68;6.43;;;5.40;99.90;;;;;;5054885;28;20040;-70
2021/11/03 04:53:50;;;;;;;7.80;6.20;;;5.40;99.90;;;;;;5054321;28;20056;-71
2021/11/03 04:56:18;;;;;;;8.52;5.30;;;5.40;99.90;;;;;;5053649;28;20374;-70
2021/11/03 04:58:44;;;;;;;8.20;5.13;;;5.40;99.90;;;;;;5054452;28;20070;-70
2021/11/03 05:01:10;;;;;;;6.15;4.78;;;5.40;99.90;;;;;;5054501;28;20032;-70
2021/11/03 05:03:35;;;;;;;5.47;3.72;;;5.40;99.90;;;;;;5054999;28;20484;-70
2021/11/03 05:06:02;;;;;;;5.63;4.00;;;5.40;99.90;;;;;;5054125;28;20025;-70
2021/11/03 05:08:28;;;;;;;8.13;5.05;;;5.40;99.90;;;;;;5054847;28;20089;-71
2021/11/03 05:10:54;;;;;;;5.75;4.30;;;5.40;99.90;;;;;;5053991;28;20029;-70
2021/11/03 05:13:20;;;;;;;9.05;5.93;;;5.50;99.90;;;;;;5053983;28;20074;-70
2021/11/03 05:15:45;;;;;;;7.82;4.93;;;5.50;99.90;;;;;;5053927;28;20037;-70
2021/11/03 05:18:11;;;;;;;7.18;4.15;;;5.60;99.90;;;;;;5054693;28;20025;-70
2021/11/03 05:20:37;;;;;;;5.80;3.03;;;5.60;99.90;;;;;;5054727;28;20139;-71
2021/11/03 05:23:03;;;;;;;5.75;3.50;;;5.70;99.90;;;;;;5054147;28;20032;-71
2021/11/03 05:25:28;;;;;;;4.93;3.28;;;5.70;99.90;;;;;;5054504;28;20102;-71
2021/11/03 05:27:55;;;;;;;2.88;2.50;;;5.70;99.90;;;;;;5053452;28;20116;-70
2021/11/03 05:30:24;;;;;;;5.38;3.10;;;5.80;99.90;;;;;;5053968;28;20039;-70
2021/11/03 05:32:49;;;;;;;2.50;2.05;;;5.90;99.90;;;;;;5052948;28;20115;-70
2021/11/03 05:35:16;;;;;;;2.97;2.50;;;5.90;99.90;;;;;;5053861;28;20470;-70
2021/11/03 05:37:41;;;;;;;4.07;2.42;;;5.90;99.90;;;;;;5053082;28;20048;-69
2021/11/03 05:40:12;;;;;;;3.75;2.72;;;6.00;99.90;;;;;;5053835;28;20033;-71
2021/11/03 05:42:38;;;;;;;2.55;2.30;;;5.90;99.90;;;;;;5053584;28;20118;-69
2021/11/03 05:45:04;;;;;;;5.45;3.20;;;5.90;99.90;;;;;;5053016;28;20080;-70
2021/11/03 05:47:31;;;;;;;2.83;2.50;;;5.90;99.90;;;;;;5053745;28;20114;-70
2021/11/03 05:49:57;;;;;;;4.10;2.25;;;5.90;99.90;;;;;;5053110;28;20481;-71
2021/11/03 05:52:25;;;;;;;2.08;1.80;;;5.90;99.90;;;;;;5053462;28;20029;-71
2021/11/03 05:54:51;;;;;;;4.88;2.28;;;5.90;99.90;;;;;;5052419;28;20389;-70
2021/11/03 05:57:29;;;;;;;4.70;2.90;;;5.90;99.90;;;;;;5053662;28;20024;-71
2021/11/03 05:59:56;;;;;;;6.32;3.33;;;5.90;99.90;;;;;;5052382;28;20469;-70
2021/11/03 06:02:22;;;;;;;9.50;4.15;;;5.90;99.90;;;;;;5053680;28;20377;-70
2021/11/03 06:04:48;;;;;;;7.03;4.28;;;5.90;99.90;;;;;;5053098;28;20047;-70
2021/11/03 06:07:15;;;;;;;8.55;4.00;;;5.90;99.90;;;;;;5053387;28;20429;-71
2021/11/03 06:09:43;;;;;;;5.20;3.90;;;5.90;99.90;;;;;;5053098;28;20075;-70
2021/11/03 06:12:10;;;;;;;6.05;3.10;;;5.80;99.90;;;;;;5053304;28;20450;-71
2021/11/03 06:14:36;;;;;;;5.07;3.05;;;5.80;99.90;;;;;;5053933;28;20040;-70
2021/11/03 06:17:01;;;;;;;4.10;2.75;;;5.90;99.90;;;;;;5052804;28;20404;-72
2021/11/03 06:19:27;;;;;;;7.30;3.88;;;5.90;99.90;;;;;;5052431;28;20566;-70
2021/11/03 06:21:53;;;;;;;6.40;3.40;;;5.90;99.90;;;;;;5051315;28;20041;-70
2021/11/03 06:24:20;;;;;;;4.13;2.85;;;5.90;99.90;;;;;;5051394;28;20028;-70
2021/11/03 06:26:47;;;;;;;5.07;2.75;;;6.00;99.90;;;;;;5051107;28;20374;-70
2021/11/03 06:29:12;;;;;;;4.45;2.05;;;6.00;99.90;;;;;;5051447;28;20031;-70
2021/11/03 06:31:38;;;;;;;2.28;1.92;;;6.10;99.90;;;;;;5051069;28;20024;-69
2021/11/03 06:34:07;;;;;;;4.55;2.08;;;6.10;99.90;;;;;;5051056;28;20033;-70
2021/11/03 06:36:33;;;;;;;3.67;2.92;;;6.20;99.90;;;;;;5051070;28;20347;-69
2021/11/03 06:38:59;;;;;;;1.55;1.45;;;6.30;99.90;;;;;;5049686;28;20033;-68
2021/11/03 06:41:25;;;;;;;4.13;2.10;;;6.40;99.90;;;;;;5052727;28;20112;-69
2021/11/03 06:43:51;;;;;;;4.57;1.88;;;6.50;99.90;;;;;;5051401;28;20048;-69
2021/11/03 06:46:17;;;;;;;2.45;1.30;;;6.50;99.90;;;;;;5052353;28;20044;-69
2021/11/03 06:48:43;;;;;;;3.40;1.30;;;6.60;99.90;;;;;;5051812;28;20078;-68
2021/11/03 06:51:09;;;;;;;4.47;1.75;;;6.60;99.90;;;;;;5052079;28;20120;-71
2021/11/03 06:53:35;;;;;;;4.45;1.80;;;6.60;99.90;;;;;;5051599;28;20104;-72
2021/11/03 06:56:03;;;;;;;3.58;2.00;;;6.70;99.90;;;;;;5047951;28;20619;-71
2021/11/03 06:58:29;;;;;;;1.35;1.23;;;6.70;99.90;;;;;;5051495;28;20033;-70
2021/11/03 07:00:57;;;;;;;2.65;1.60;;;6.80;99.90;;;;;;5051126;28;20068;-69
2021/11/03 07:03:25;;;;;;;3.05;1.30;;;6.80;99.90;;;;;;5051907;28;20049;-69
2021/11/03 07:05:51;;;;;;;3.03;1.85;;;6.90;99.90;;;;;;5051304;28;20068;-70
2021/11/03 07:08:19;;;;;;;3.90;1.73;;;6.90;99.90;;;;;;5052039;28;20029;-69
2021/11/03 07:10:47;;;;;;;5.93;1.88;;;6.90;99.90;;;;;;5051522;28;20055;-69
2021/11/03 07:13:15;;;;;;;4.75;1.77;;;7.00;99.90;;;;;;5052249;28;20056;-68
2021/11/03 07:15:41;;;;;;;2.25;1.38;;;7.00;99.90;;;;;;5052048;28;20462;-69
2021/11/03 07:18:08;;;;;;;2.15;1.70;;;7.10;99.90;;;;;;5052252;28;20025;-68
2021/11/03 07:20:35;;;;;;;2.80;1.88;;;7.10;99.90;;;;;;5052176;28;20065;-77
2021/11/03 07:23:01;;;;;;;2.10;1.50;;;7.20;99.90;;;;;;5031846;28;20108;-71
2021/11/03 07:25:27;;;;;;;0.80;0.80;;;7.20;99.90;;;;;;5032337;28;20393;-72
2021/11/03 07:27:55;;;;;;;6.22;1.20;;;7.30;99.90;;;;;;5050108;28;20036;-72
2021/11/03 07:30:23;;;;;;;2.85;1.20;;;7.40;99.90;;;;;;5051832;28;20029;-71
2021/11/03 07:32:49;;;;;;;3.63;1.27;;;7.50;99.90;;;;;;5051250;28;20482;-71
2021/11/03 07:35:15;;;;;;;1.30;1.10;;;7.50;99.90;;;;;;5051853;28;20119;-72
2021/11/03 07:37:41;;;;;;;5.20;1.65;;;7.60;99.90;;;;;;5052166;28;20025;-72
2021/11/03 07:40:10;;;;;;;2.75;1.38;;;7.60;99.90;;;;;;5051098;28;20489;-72
2021/11/03 07:42:37;;;;;;;2.83;1.20;;;7.70;99.90;;;;;;5051699;28;20067;-69
2021/11/03 07:45:05;;;;;;;1.65;1.02;;;7.70;99.90;;;;;;5052023;28;20441;-72
2021/11/03 07:47:30;;;;;;;1.48;0.93;;;7.70;99.90;;;;;;5060459;28;20025;-72
2021/11/03 07:49:56;;;;;;;2.40;0.82;;;7.70;99.90;;;;;;5059005;28;20028;-72
2021/11/03 07:52:21;;;;;;;1.15;0.73;;;7.80;99.90;;;;;;5067095;28;20543;-72
2021/11/03 07:54:47;;;;;;;1.70;0.95;;;7.80;99.90;;;;;;5054301;28;20032;-72
2021/11/03 07:57:13;;;;;;;2.38;0.88;;;7.90;99.90;;;;;;5063232;28;20025;-72
2021/11/03 07:59:38;;;;;;;1.35;0.80;;;7.90;99.90;;;;;;5061602;28;20032;-71
2021/11/03 08:02:04;;;;;;;4.45;1.00;;;8.00;99.90;;;;;;5061378;28;20035;-72
2021/11/03 08:04:31;;;;;;;8.00;1.38;;;8.10;99.90;;;;;;5067913;28;20028;-72
2021/11/03 08:06:57;;;;;;;10.88;1.40;;;8.20;99.90;;;;;;5054394;28;20099;-72
2021/11/03 08:09:22;;;;;;;2.25;1.20;;;8.20;99.90;;;;;;5063969;28;20542;-77
2021/11/03 08:11:51;;;;;;;3.63;1.23;;;8.20;99.90;;;;;;5060897;28;20029;-76
2021/11/03 08:14:19;;;;;;;1.30;0.82;;;8.20;99.90;;;;;;5056660;28;20028;-73
2021/11/03 08:16:50;;;;;;;1.42;1.08;;;8.30;99.90;;;;;;5067132;28;20109;-72
2021/11/03 08:19:16;;;;;;;3.90;1.10;;;8.30;99.90;;;;;;5057647;28;20025;-72
2021/11/03 08:21:43;;;;;;;4.32;1.23;;;8.30;99.90;;;;;;5061023;28;20048;-76
2021/11/03 08:24:09;;;;;;;1.92;1.20;;;8.30;99.90;;;;;;5064648;28;20426;-75
2021/11/03 08:26:35;;;;;;;1.92;0.95;;;8.40;99.90;;;;;;5054181;28;20150;-75
2021/11/03 08:29:01;;;;;;;4.30;1.20;;;8.50;99.90;;;;;;5066100;28;20378;-75
2021/11/03 08:31:26;;;;;;;1.50;0.82;;;8.50;99.90;;;;;;5058900;28;20033;-76
2021/11/03 08:33:53;;;;;;;1.48;0.80;;;8.50;99.90;;;;;;5058861;28;20032;-75
2021/11/03 08:36:19;;;;;;;0.60;0.50;;;8.60;99.90;;;;;;5066241;28;20039;-75
2021/11/03 08:38:47;;;;;;;1.75;1.02;;;8.60;99.90;;;;;;5052456;28;20470;-75
2021/11/03 08:41:12;;;;;;;1.08;0.88;;;8.70;99.90;;;;;;5064373;28;20364;-75
2021/11/03 08:43:41;;;;;;;1.30;1.02;;;8.70;99.90;;;;;;5059503;28;20094;-71
2021/11/03 08:46:07;;;;;;;1.27;0.70;;;8.70;99.90;;;;;;5064045;28;20029;-71
2021/11/03 08:48:33;;;;;;;3.40;0.73;;;8.70;99.90;;;;;;5055850;28;20074;-72
2021/11/03 08:50:59;;;;;;;2.30;0.90;;;8.80;99.90;;;;;;5070111;28;20481;-73
2021/11/03 08:53:24;;;;;;;4.63;1.17;;;8.80;99.90;;;;;;5062303;28;20032;-71
2021/11/03 08:55:54;;;;;;;1.73;1.38;;;8.80;99.90;;;;;;5062320;28;20108;-70
2021/11/03 08:58:22;;;;;;;3.45;1.30;;;8.80;99.90;;;;;;5069600;28;20551;-69
2021/11/03 09:00:50;;;;;;;3.35;1.80;;;8.80;99.90;;;;;;5057338;28;20075;-72
2021/11/03 09:03:16;;;;;;;2.25;1.25;;;8.90;99.90;;;;;;5067610;28;20058;-73
2021/11/03 09:05:42;;;;;;;2.67;1.40;;;8.90;99.90;;;;;;5064305;28;20029;-73
2021/11/03 09:08:10;;;;;;;2.55;1.50;;;8.90;99.90;;;;;;5060321;28;20393;-73
2021/11/03 09:10:45;;;;;;;2.22;1.30;;;9.00;99.90;;;;;;5071041;28;20059;-73
2021/11/03 09:13:21;;;;;;;3.15;1.30;;;9.10;99.90;;;;;;5060157;28;20029;-73
2021/11/03 09:15:47;;;;;;;4.28;1.30;;;9.10;99.90;;;;;;5062923;28;20033;-71
2021/11/03 09:18:14;;;;;;;3.08;1.08;;;9.20;99.90;;;;;;5068708;28;20024;-77
2021/11/03 09:20:42;;;;;;;1.52;0.82;;;9.30;99.90;;;;;;5056651;28;20555;-72
2021/11/03 09:23:08;;;;;;;1.70;1.25;;;9.50;99.90;;;;;;5059142;28;20055;-70
2021/11/03 09:25:34;;;;;;;1.95;1.17;;;9.70;99.90;;;;;;5065239;28;20036;-70
2021/11/03 09:28:00;;;;;;;3.80;1.25;;;9.80;99.90;;;;;;5066142;28;20025;-70
2021/11/03 09:30:29;;;;;;;5.30;1.17;;;10.00;99.90;;;;;;5057763;28;20135;-73
2021/11/03 09:32:57;;;;;;;2.63;1.23;;;10.10;99.90;;;;;;5040365;28;20047;-73
2021/11/03 09:35:27;;;;;;;2.13;1.10;;;10.20;99.90;;;;;;5066353;28;20465;-71
2021/11/03 09:37:56;;;;;;;5.68;1.60;;;10.30;99.90;;;;;;5064928;28;20052;-72
2021/11/03 09:40:33;;;;;;;2.13;1.45;;;10.40;99.90;;;;;;5072249;28;20047;-74
2021/11/03 09:42:59;;;;;;;3.17;1.63;;;10.40;99.90;;;;;;5041374;28;20114;-73
2021/11/03 09:45:35;;;;;;;2.55;1.60;;;10.40;99.90;;;;;;5065747;28;20142;-70
2021/11/03 09:48:20;;;;;;;3.40;1.55;;;10.50;99.90;;;;;;5067069;28;20502;-71
2021/11/03 09:50:52;;;;;;;2.75;1.90;;;10.50;99.90;;;;;;5073719;28;20107;-70
2021/11/03 09:53:24;;;;;;;3.67;2.13;;;10.60;99.90;;;;;;5073235;28;20429;-68
2021/11/03 09:55:51;;;;;;;2.38;1.75;;;10.70;99.90;;;;;;5070671;28;20024;-70
2021/11/03 09:58:36;;;;;;;5.00;1.50;;;10.70;99.90;;;;;;5053610;28;20059;-70
2021/11/03 10:01:28;;;;;;;3.00;1.85;;;10.70;99.90;;;;;;5051701;28;20429;-70
2021/11/03 10:04:13;;;;;;;5.00;1.95;;;10.80;99.90;;;;;;5052936;28;20068;-69
2021/11/03 10:07:05;;;;;;;4.93;1.92;;;10.70;99.90;;;;;;5053619;28;20438;-70
2021/11/03 10:09:31;;;;;;;5.75;2.47;;;10.70;99.90;;;;;;5053353;28;20386;-72
2021/11/03 10:11:57;;;;;;;5.45;2.85;;;10.70;99.90;;;;;;5052947;28;20032;-70
2021/11/03 10:14:24;;;;;;;3.60;2.38;;;10.60;99.90;;;;;;5053200;28;20025;-71
2021/11/03 10:16:54;;;;;;;6.97;2.80;;;10.60;99.90;;;;;;5052871;28;20029;-69
2021/11/03 10:19:27;;;;;;;4.95;2.67;;;10.50;99.90;;;;;;5054186;28;20110;-71
2021/11/03 10:22:20;;;;;;;4.30;1.75;;;10.50;99.90;;;;;;5052211;28;20387;-69
2021/11/03 10:25:24;;;;;;;5.00;1.90;;;10.40;99.90;;;;;;5052628;28;20382;-69
2021/11/03 10:27:54;;;;;;;3.40;2.05;;;10.40;99.90;;;;;;5031410;28;20038;-69
2021/11/03 10:30:27;;;;;;;2.78;1.58;;;10.40;99.90;;;;;;5033270;28;20040;-67
2021/11/03 10:32:54;;;;;;;5.22;1.50;;;10.40;99.90;;;;;;5032491;28;20025;-69
2021/11/03 10:35:48;;;;;;;1.65;1.10;;;10.50;99.90;;;;;;5033299;28;20105;-69
2021/11/03 10:38:17;;;;;;;1.50;1.23;;;10.60;99.90;;;;;;5027171;28;20040;-68
2021/11/03 10:41:03;;;;;;;1.27;0.80;;;10.70;99.90;;;;;;5032665;28;20045;-69
2021/11/03 10:43:39;;;;;;;1.35;1.10;;;10.70;99.90;;;;;;5032918;28;20068;-67
2021/11/03 10:46:22;;;;;;;2.58;1.27;;;10.70;99.90;;;;;;5032223;28;20045;-68
2021/11/03 10:49:06;;;;;;;2.45;1.00;;;10.80;99.90;;;;;;5032745;28;20029;-68
2021/11/03 10:51:39;;;;;;;1.73;1.30;;;10.80;99.90;;;;;;5048547;28;20033;-69
2021/11/03 10:54:20;;;;;;;3.65;1.20;;;10.90;99.90;;;;;;5032160;28;20025;-67
2021/11/03 10:56:59;;;;;;;1.58;1.15;;;11.00;99.90;;;;;;5041656;28;20021;-68
2021/11/03 10:59:28;;;;;;;1.42;1.20;;;11.10;99.90;;;;;;5052987;28;20433;-68
2021/11/03 11:01:56;;;;;;;4.68;1.30;;;11.20;99.90;;;;;;5052104;28;20033;-68
2021/11/03 11:04:36;;;;;;;2.63;1.10;;;11.20;99.90;;;;;;5052603;28;20037;-69
2021/11/03 11:07:25;;;;;;;1.98;1.35;;;11.20;99.90;;;;;;5051902;28;20102;-68
2021/11/03 11:09:59;;;;;;;2.05;1.23;;;11.20;99.90;;;;;;5051850;28;20033;-68
2021/11/03 11:12:34;;;;;;;3.40;1.38;;;11.20;99.90;;;;;;5052133;28;20061;-68
2021/11/03 11:15:20;;;;;;;2.70;1.35;;;11.20;99.90;;;;;;5051559;28;20037;-70
2021/11/03 11:18:01;;;;;;;1.50;1.20;;;11.10;99.90;;;;;;5051615;28;20544;-68
2021/11/03 11:20:36;;;;;;;3.25;1.35;;;11.10;99.90;;;;;;5052221;28;20029;-69
2021/11/03 11:23:09;;;;;;;2.38;1.35;;;11.10;99.90;;;;;;5031748;28;20030;-70
2021/11/03 11:25:55;;;;;;;2.53;1.75;;;11.00;99.90;;;;;;5032342;28;20021;-69
2021/11/03 11:28:30;;;;;;;4.63;1.55;;;10.90;99.90;;;;;;5052363;28;20040;-70
2021/11/03 11:31:07;;;;;;;4.63;1.70;;;10.90;99.90;;;;;;5051609;28;20032;-69
2021/11/03 11:33:43;;;;;;;4.88;2.22;;;10.80;99.90;;;;;;5051989;28;20036;-67
2021/11/03 11:36:39;;;;;;;4.35;1.48;;;10.80;99.90;;;;;;5051379;28;20394;-69
2021/11/03 11:39:46;;;;;;;1.73;1.42;;;10.70;99.90;;;;;;5051667;28;20100;-70
2021/11/03 11:42:22;;;;;;;1.40;1.30;;;10.60;99.90;;;;;;5051892;28;20045;-69
2021/11/03 11:44:59;;;;;;;4.97;1.83;;;10.60;99.90;;;;;;5051037;28;20049;-70
2021/11/03 11:47:42;;;;;;;5.65;1.50;;;10.60;99.90;;;;;;5051997;28;20057;-68
2021/11/03 11:50:35;;;;;;;4.70;1.38;;;10.60;99.90;;;;;;5051417;28;20037;-68
2021/11/03 11:53:01;;;;;;;1.70;1.20;;;10.70;99.90;;;;;;5051556;28;20100;-68
2021/11/03 11:55:32;;;;;;;2.85;1.10;;;10.70;99.90;;;;;;5051684;28;20479;-69
2021/11/03 11:58:07;;;;;;;2.75;1.27;;;10.80;99.90;;;;;;5050935;28;20059;-69
2021/11/03 12:00:35;;;;;;;2.05;1.05;;;10.80;99.90;;;;;;5051685;28;20033;-68
2021/11/03 12:03:16;;;;;;;3.15;1.23;;;10.70;99.90;;;;;;5051460;28;20071;-69
2021/11/03 12:05:55;;;;;;;4.28;1.23;;;10.70;99.90;;;;;;5051846;28;20061;-68
2021/11/03 12:08:48;;;;;;;1.58;1.15;;;10.60;99.90;;;;;;5052048;28;20028;-69
2021/11/03 12:11:17;;;;;;;2.38;1.27;;;10.70;99.90;;;;;;5051745;28;20455;-68
2021/11/03 12:13:46;;;;;;;3.30;1.00;;;10.70;99.90;;;;;;5052069;28;20462;-67
2021/11/03 12:16:32;;;;;;;2.35;1.30;;;10.70;99.90;;;;;;5051105;28;20029;-67
2021/11/03 12:19:00;;;;;;;1.33;0.90;;;10.80;99.90;;;;;;5050936;28;20552;-72
2021/11/03 12:21:26;;;;;;;4.60;1.48;;;10.70;99.90;;;;;;5051196;28;20043;-68
2021/11/03 12:24:06;;;;;;;1.20;1.10;;;10.70;99.90;;;;;;5053365;28;20025;-71
2021/11/03 12:26:41;;;;;;;;;;;10.70;99.90;;;;;;5055721;28;20104;-70
2021/11/03 12:29:16;;;;;;;5.32;1.35;;;10.70;99.90;;;;;;5054818;28;19958;-70
2021/11/03 12:31:48;;;;;;;4.88;1.33;;;10.80;99.90;;;;;;5055398;28;20040;-70
2021/11/03 12:34:28;;;;;;;4.43;1.90;;;10.90;99.90;;;;;;5055654;28;20058;-68
2021/11/03 12:36:57;;;;;;;;;;;10.90;99.90;;;;;;5055064;28;20466;-72
2021/11/03 12:39:28;;;;;;;3.13;1.00;;;11.00;99.90;;;;;;5055302;28;19927;-69
2021/11/03 12:42:00;;;;;;;2.83;1.30;;;11.00;99.90;;;;;;5054261;28;20095;-68
2021/11/03 12:44:30;;;;;;;2.42;1.30;;;11.00;99.90;;;;;;5054793;28;20041;-68
2021/11/03 12:46:56;;;;;;;1.80;1.07;;;11.00;99.90;;;;;;5054161;28;20458;-69
2021/11/03 12:49:25;;;;;;;1.73;1.02;;;10.90;99.90;;;;;;5055191;28;20033;-69
2021/11/03 12:51:55;;;;;;;2.50;1.33;;;10.90;99.90;;;;;;5054397;28;20028;-69
2021/11/03 12:54:29;;;;;;;3.17;1.48;;;10.70;99.90;;;;;;5054927;28;20091;-68
2021/11/03 12:57:01;;;;;;;1.98;0.95;;;10.70;99.90;;;;;;5054019;28;20021;-69
2021/11/03 12:59:29;;;;;;;3.15;1.27;;;10.60;99.90;;;;;;5054915;28;20446;-69
2021/11/03 13:02:18;;;;;;;2.78;1.10;;;10.60;99.90;;;;;;5054074;28;20040;-69
2021/11/03 13:04:46;;;;;;;4.10;1.45;;;10.60;99.90;;;;;;5054927;28;20108;-69
2021/11/03 13:07:22;;;;;;;3.90;1.67;;;10.50;99.90;;;;;;5054083;28;20099;-70